PWSweather.com
Personal Weather Stations
Station Observations
IHTIMAN1
Neighbourhood 1, IhtimanBG 2050

Neighbourhood 1IhtimanBG 2050

Lat: 42.436852, Lon: 23.817921

Elevation: 2066

Station Type: Oregon Scientific WMR968

http://ihtiman-meteo.com

High Low Average
Temperature 85.3°F29.6°C 55.9°F13.3°C 71.1°F21.7°C
Dew Point 61.7°F16.5°C 55.4°F13.0°C 59.6°F15.3°C
Winds 9.2 mph 14.8 kmh Calm Calm 3.0 mph S4.8 kmh S
Wind Gusts 12.7 mph20.4 kmh -- 4.0 mph6.4 kmh
Humidity 98% 42% 70%
Pressure 30.12 in1020.0 mb 30.09 in1019.0 mb -
Precipitation 0.00 in0.0 mm - -
Hour Temp Dew Point Humidity Winds Wind Gusts Pressure Precip Precip Rate Daily Precip Total
01:00 AM 64.0°F17.8°C 60.4°F15.8°C 88% Calm Calm -- 30.12 in1020.0 mb - 0.00 in0.0 mm 0.00 in0.0 mm
02:51 AM 61.6°F16.4°C 59.6°F15.3°C 93% Calm Calm -- 30.12 in1020.0 mb - 0.00 in0.0 mm 0.00 in0.0 mm
04:22 AM 60.2°F15.7°C 58.8°F14.9°C 95% 2.3 mph SSE3.7 kmh SSE 3.5 mph5.6 kmh 30.12 in1020.0 mb - 0.00 in0.0 mm 0.00 in0.0 mm
04:32 AM 59.6°F15.3°C 58.4°F14.7°C 96% Calm Calm 2.3 mph3.7 kmh 30.12 in1020.0 mb - 0.00 in0.0 mm 0.00 in0.0 mm
04:41 AM 59.6°F15.3°C 58.4°F14.7°C 96% Calm Calm 2.3 mph3.7 kmh 30.12 in1020.0 mb - 0.00 in0.0 mm 0.00 in0.0 mm
04:51 AM 59.4°F15.2°C 58.3°F14.6°C 96% Calm Calm -- 30.12 in1020.0 mb - 0.00 in0.0 mm 0.00 in0.0 mm
05:01 AM 59.4°F15.2°C 58.5°F14.7°C 97% Calm Calm -- 30.12 in1020.0 mb - 0.00 in0.0 mm 0.00 in0.0 mm
05:51 AM 59.4°F15.2°C 58.5°F14.7°C 97% Calm Calm -- 30.12 in1020.0 mb - 0.00 in0.0 mm 0.00 in0.0 mm
06:43 AM 59.4°F15.2°C 58.5°F14.7°C 97% 1.2 mph NE1.9 kmh NE 3.5 mph5.6 kmh 30.12 in1020.0 mb - 0.00 in0.0 mm 0.00 in0.0 mm
01:20 PM 55.9°F13.3°C 55.4°F13.0°C 98% 9.2 mph NNW14.8 kmh NNW 12.7 mph20.4 kmh 30.12 in1020.0 mb - 0.00 in0.0 mm 0.00 in0.0 mm
01:30 PM 82.6°F28.1°C 57.8°F14.3°C 43% 5.8 mph N9.3 kmh N 12.7 mph20.4 kmh 30.09 in1019.0 mb - 0.00 in0.0 mm 0.00 in0.0 mm
01:40 PM 84.1°F28.9°C 59.2°F15.1°C 43% 6.9 mph NNW11.1 kmh NNW 12.7 mph20.4 kmh 30.09 in1019.0 mb - 0.00 in0.0 mm 0.00 in0.0 mm
01:50 PM 83.5°F28.6°C 58.0°F14.4°C 42% 9.2 mph N14.8 kmh N 12.7 mph20.4 kmh 30.12 in1020.0 mb - 0.00 in0.0 mm 0.00 in0.0 mm
02:00 PM 84.2°F29.0°C 58.6°F14.8°C 42% 6.9 mph NNE11.1 kmh NNE 8.1 mph13.0 kmh 30.12 in1020.0 mb - 0.00 in0.0 mm 0.00 in0.0 mm
02:10 PM 82.4°F28.0°C 57.6°F14.2°C 43% 5.8 mph N9.3 kmh N 5.8 mph9.3 kmh 30.12 in1020.0 mb - 0.00 in0.0 mm 0.00 in0.0 mm
02:20 PM 79.7°F26.5°C 58.8°F14.9°C 49% 4.6 mph NNE7.4 kmh NNE 11.5 mph18.5 kmh 30.12 in1020.0 mb - 0.00 in0.0 mm 0.00 in0.0 mm
02:30 PM 81.5°F27.5°C 59.3°F15.2°C 47% 5.8 mph NNE9.3 kmh NNE 9.2 mph14.8 kmh 30.12 in1020.0 mb - 0.00 in0.0 mm 0.00 in0.0 mm
02:40 PM 81.4°F27.4°C 60.4°F15.8°C 49% 3.5 mph NNE5.6 kmh NNE 5.8 mph9.3 kmh 30.12 in1020.0 mb - 0.00 in0.0 mm 0.00 in0.0 mm
02:50 PM 82.3°F27.9°C 60.6°F15.9°C 48% 5.8 mph NE9.3 kmh NE 8.1 mph13.0 kmh 30.09 in1019.0 mb - 0.00 in0.0 mm 0.00 in0.0 mm
03:00 PM 83.7°F28.7°C 61.4°F16.3°C 47% 4.6 mph NE7.4 kmh NE 8.1 mph13.0 kmh 30.12 in1020.0 mb - 0.00 in0.0 mm 0.00 in0.0 mm
03:10 PM 84.3°F29.1°C 60.0°F15.6°C 44% 6.9 mph N11.1 kmh N 11.5 mph18.5 kmh 30.12 in1020.0 mb - 0.00 in0.0 mm 0.00 in0.0 mm
03:20 PM 84.9°F29.4°C 60.6°F15.9°C 44% 3.5 mph N5.6 kmh N 11.5 mph18.5 kmh 30.09 in1019.0 mb - 0.00 in0.0 mm 0.00 in0.0 mm
03:30 PM 85.3°F29.6°C 60.3°F15.7°C 43% 5.8 mph 9.3 kmh 10.4 mph16.7 kmh 30.09 in1019.0 mb - 0.00 in0.0 mm 0.00 in0.0 mm
03:40 PM 80.7°F27.1°C 57.4°F14.1°C 45% 5.8 mph N9.3 kmh N 9.2 mph14.8 kmh 30.09 in1019.0 mb - 0.00 in0.0 mm 0.00 in0.0 mm
03:50 PM 78.9°F26.1°C 57.6°F14.2°C 48% 4.6 mph NNE7.4 kmh NNE 8.1 mph13.0 kmh 30.09 in1019.0 mb - 0.00 in0.0 mm 0.00 in0.0 mm
04:00 PM 77.4°F25.2°C 57.8°F14.3°C 51% 5.8 mph N9.3 kmh N 8.1 mph13.0 kmh 30.09 in1019.0 mb - 0.00 in0.0 mm 0.00 in0.0 mm
04:10 PM 76.2°F24.6°C 57.3°F14.1°C 52% 6.9 mph N11.1 kmh N 9.2 mph14.8 kmh 30.09 in1019.0 mb - 0.00 in0.0 mm 0.00 in0.0 mm
04:20 PM 75.4°F24.1°C 57.1°F13.9°C 53% 5.8 mph N9.3 kmh N 10.4 mph16.7 kmh 30.09 in1019.0 mb - 0.00 in0.0 mm 0.00 in0.0 mm
04:30 PM 74.8°F23.8°C 56.6°F13.7°C 53% 4.6 mph N7.4 kmh N 5.8 mph9.3 kmh 30.09 in1019.0 mb - 0.00 in0.0 mm 0.00 in0.0 mm
04:40 PM 75.4°F24.1°C 57.0°F13.9°C 53% 4.6 mph N7.4 kmh N 4.6 mph7.4 kmh 30.09 in1019.0 mb - 0.00 in0.0 mm 0.00 in0.0 mm
04:50 PM 75.1°F23.9°C 56.8°F13.8°C 53% 4.6 mph N7.4 kmh N 5.8 mph9.3 kmh 30.09 in1019.0 mb - 0.00 in0.0 mm 0.00 in0.0 mm
05:00 PM 74.5°F23.6°C 57.2°F14.0°C 55% 4.6 mph N7.4 kmh N 5.8 mph9.3 kmh 30.12 in1020.0 mb - 0.00 in0.0 mm 0.00 in0.0 mm
05:10 PM 74.5°F23.6°C 57.3°F14.1°C 55% 4.6 mph NNW7.4 kmh NNW 6.9 mph11.1 kmh 30.12 in1020.0 mb - 0.00 in0.0 mm 0.00 in0.0 mm
05:20 PM 74.7°F23.7°C 57.9°F14.4°C 56% 4.6 mph NW7.4 kmh NW 5.8 mph9.3 kmh 30.09 in1019.0 mb - 0.00 in0.0 mm 0.00 in0.0 mm
05:30 PM 75.0°F23.9°C 58.2°F14.6°C 56% 1.2 mph NNW1.9 kmh NNW 4.6 mph7.4 kmh 30.09 in1019.0 mb - 0.00 in0.0 mm 0.00 in0.0 mm
05:40 PM 74.8°F23.8°C 59.1°F15.1°C 58% 2.3 mph NW3.7 kmh NW 3.5 mph5.6 kmh 30.09 in1019.0 mb - 0.00 in0.0 mm 0.00 in0.0 mm
05:50 PM 75.4°F24.1°C 60.1°F15.6°C 59% 3.5 mph N5.6 kmh N 5.8 mph9.3 kmh 30.09 in1019.0 mb - 0.00 in0.0 mm 0.00 in0.0 mm
06:00 PM 75.1°F23.9°C 60.2°F15.7°C 60% 1.2 mph NNW1.9 kmh NNW 5.8 mph9.3 kmh 30.09 in1019.0 mb - 0.00 in0.0 mm 0.00 in0.0 mm
06:10 PM 74.9°F23.8°C 60.1°F15.6°C 60% 3.5 mph N5.6 kmh N 5.8 mph9.3 kmh 30.09 in1019.0 mb - 0.00 in0.0 mm 0.00 in0.0 mm
06:20 PM 74.7°F23.7°C 59.9°F15.5°C 60% 3.5 mph NW5.6 kmh NW 3.5 mph5.6 kmh 30.09 in1019.0 mb - 0.00 in0.0 mm 0.00 in0.0 mm
06:30 PM 73.9°F23.3°C 59.6°F15.3°C 61% 3.5 mph NW5.6 kmh NW 3.5 mph5.6 kmh 30.09 in1019.0 mb - 0.00 in0.0 mm 0.00 in0.0 mm
06:40 PM 73.3°F22.9°C 60.4°F15.8°C 64% Calm Calm -- 30.09 in1019.0 mb - 0.00 in0.0 mm 0.00 in0.0 mm
07:00 PM 72.7°F22.6°C 60.7°F15.9°C 66% Calm Calm 3.5 mph5.6 kmh 30.09 in1019.0 mb - 0.00 in0.0 mm 0.00 in0.0 mm
07:10 PM 72.7°F22.6°C 60.7°F15.9°C 66% 3.5 mph N5.6 kmh N 4.6 mph7.4 kmh 30.09 in1019.0 mb - 0.00 in0.0 mm 0.00 in0.0 mm
07:20 PM 72.7°F22.6°C 60.7°F15.9°C 66% 3.5 mph NNE5.6 kmh NNE 3.5 mph5.6 kmh 30.09 in1019.0 mb - 0.00 in0.0 mm 0.00 in0.0 mm
07:30 PM 71.8°F22.1°C 61.1°F16.2°C 69% Calm Calm 3.5 mph5.6 kmh 30.09 in1019.0 mb - 0.00 in0.0 mm 0.00 in0.0 mm
07:40 PM 71.8°F22.1°C 61.1°F16.2°C 69% Calm Calm 3.5 mph5.6 kmh 30.09 in1019.0 mb - 0.00 in0.0 mm 0.00 in0.0 mm
07:50 PM 71.8°F22.1°C 61.1°F16.2°C 69% 4.6 mph NNW7.4 kmh NNW 5.8 mph9.3 kmh 30.09 in1019.0 mb - 0.00 in0.0 mm 0.00 in0.0 mm
08:00 PM 71.8°F22.1°C 61.1°F16.2°C 69% 2.3 mph NNW3.7 kmh NNW 3.5 mph5.6 kmh 30.09 in1019.0 mb - 0.00 in0.0 mm 0.00 in0.0 mm
08:10 PM 71.8°F22.1°C 61.1°F16.2°C 69% 2.3 mph NW3.7 kmh NW 3.5 mph5.6 kmh 30.09 in1019.0 mb - 0.00 in0.0 mm 0.00 in0.0 mm
08:20 PM 71.8°F22.1°C 61.1°F16.2°C 69% Calm Calm -- 30.12 in1020.0 mb - 0.00 in0.0 mm 0.00 in0.0 mm
08:30 PM 71.8°F22.1°C 61.1°F16.2°C 69% Calm Calm 3.5 mph5.6 kmh 30.09 in1019.0 mb - 0.00 in0.0 mm 0.00 in0.0 mm
08:40 PM 67.8°F19.9°C 61.4°F16.3°C 80% Calm Calm -- 30.09 in1019.0 mb - 0.00 in0.0 mm 0.00 in0.0 mm
08:50 PM 67.3°F19.6°C 61.2°F16.2°C 81% Calm Calm -- 30.12 in1020.0 mb - 0.00 in0.0 mm 0.00 in0.0 mm
09:00 PM 66.9°F19.4°C 61.2°F16.2°C 82% Calm Calm -- 30.12 in1020.0 mb - 0.00 in0.0 mm 0.00 in0.0 mm
09:10 PM 66.7°F19.3°C 61.7°F16.5°C 84% Calm Calm -- 30.12 in1020.0 mb - 0.00 in0.0 mm 0.00 in0.0 mm
09:20 PM 66.4°F19.1°C 61.7°F16.5°C 85% Calm Calm -- 30.12 in1020.0 mb - 0.00 in0.0 mm 0.00 in0.0 mm
09:30 PM 66.0°F18.9°C 61.7°F16.5°C 86% Calm Calm -- 30.12 in1020.0 mb - 0.00 in0.0 mm 0.00 in0.0 mm
09:40 PM 65.7°F18.7°C 61.4°F16.3°C 86% Calm Calm -- 30.12 in1020.0 mb - 0.00 in0.0 mm 0.00 in0.0 mm
09:50 PM 65.3°F18.5°C 61.0°F16.1°C 86% Calm Calm -- 30.12 in1020.0 mb - 0.00 in0.0 mm 0.00 in0.0 mm
10:00 PM 64.9°F18.3°C 61.0°F16.1°C 87% Calm Calm -- 30.12 in1020.0 mb - 0.00 in0.0 mm 0.00 in0.0 mm
10:10 PM 64.4°F18.0°C 60.4°F15.8°C 87% Calm Calm 3.5 mph5.6 kmh 30.12 in1020.0 mb - 0.00 in0.0 mm 0.00 in0.0 mm
10:20 PM 63.7°F17.6°C 60.1°F15.6°C 88% 2.3 mph SE3.7 kmh SE 3.5 mph5.6 kmh 30.12 in1020.0 mb - 0.00 in0.0 mm 0.00 in0.0 mm
10:30 PM 63.1°F17.3°C 59.8°F15.4°C 89% 3.5 mph S5.6 kmh S 3.5 mph5.6 kmh 30.12 in1020.0 mb - 0.00 in0.0 mm 0.00 in0.0 mm
10:40 PM 63.0°F17.2°C 60.3°F15.7°C 91% Calm Calm -- 30.12 in1020.0 mb - 0.00 in0.0 mm 0.00 in0.0 mm
10:50 PM 62.8°F17.1°C 60.1°F15.6°C 91% Calm Calm -- 30.12 in1020.0 mb - 0.00 in0.0 mm 0.00 in0.0 mm
11:00 PM 62.6°F17.0°C 60.2°F15.7°C 92% Calm Calm -- 30.12 in1020.0 mb - 0.00 in0.0 mm 0.00 in0.0 mm
11:10 PM 62.6°F17.0°C 60.5°F15.8°C 93% Calm Calm -- 30.12 in1020.0 mb - 0.00 in0.0 mm 0.00 in0.0 mm
11:20 PM 62.2°F16.8°C 60.2°F15.7°C 93% Calm Calm 2.3 mph3.7 kmh 30.12 in1020.0 mb - 0.00 in0.0 mm 0.00 in0.0 mm
11:30 PM 61.9°F16.6°C 60.1°F15.6°C 94% Calm Calm -- 30.12 in1020.0 mb - 0.00 in0.0 mm 0.00 in0.0 mm
11:40 PM 61.7°F16.5°C 60.0°F15.6°C 94% 2.3 mph SE3.7 kmh SE 5.8 mph9.3 kmh 30.12 in1020.0 mb - 0.00 in0.0 mm 0.00 in0.0 mm
11:50 PM 61.3°F16.3°C 59.6°F15.3°C 94% Calm Calm -- 30.12 in1020.0 mb - 0.00 in0.0 mm 0.00 in0.0 mm